sensor_id;sensor_type;location;lat;lon;timestamp;pressure;altitude;pressure_sealevel;temperature;humidity
10940;BME280;5522;42.696;23.494;2023-05-02T00:01:14;53735.19;;;-139.68;100.00
10940;BME280;5522;42.696;23.494;2023-05-02T00:03:40;53747.25;;;-139.68;100.00
10940;BME280;5522;42.696;23.494;2023-05-02T00:06:09;53739.22;;;-139.68;100.00
10940;BME280;5522;42.696;23.494;2023-05-02T00:08:36;53759.31;;;-139.68;100.00
10940;BME280;5522;42.696;23.494;2023-05-02T00:11:03;53743.25;;;-139.68;100.00
10940;BME280;5522;42.696;23.494;2023-05-02T00:13:30;53775.41;;;-139.68;100.00
10940;BME280;5522;42.696;23.494;2023-05-02T00:15:57;53719.13;;;-139.68;100.00
10940;BME280;5522;42.696;23.494;2023-05-02T00:18:24;53735.19;;;-139.68;100.00
10940;BME280;5522;42.696;23.494;2023-05-02T00:20:51;53787.47;;;-139.68;100.00
10940;BME280;5522;42.696;23.494;2023-05-02T00:23:19;53759.31;;;-139.68;100.00
10940;BME280;5522;42.696;23.494;2023-05-02T00:25:46;53779.44;;;-139.68;100.00
10940;BME280;5522;42.696;23.494;2023-05-02T00:28:13;53775.41;;;-139.68;100.00
10940;BME280;5522;42.696;23.494;2023-05-02T00:30:43;53755.31;;;-139.68;100.00
10940;BME280;5522;42.696;23.494;2023-05-02T00:33:10;53745.25;;;-139.68;100.00
10940;BME280;5522;42.696;23.494;2023-05-02T00:35:38;53781.44;;;-139.68;100.00
10940;BME280;5522;42.696;23.494;2023-05-02T00:38:06;53793.50;;;-139.68;100.00
10940;BME280;5522;42.696;23.494;2023-05-02T00:40:43;53743.25;;;-139.68;100.00
10940;BME280;5522;42.696;23.494;2023-05-02T00:43:10;53735.19;;;-139.68;100.00
10940;BME280;5522;42.696;23.494;2023-05-02T00:45:37;53755.31;;;-139.68;100.00
10940;BME280;5522;42.696;23.494;2023-05-02T00:48:06;53763.34;;;-139.68;100.00
10940;BME280;5522;42.696;23.494;2023-05-02T00:50:34;53731.19;;;-139.68;100.00
10940;BME280;5522;42.696;23.494;2023-05-02T00:53:03;53713.09;;;-139.68;100.00
10940;BME280;5522;42.696;23.494;2023-05-02T00:55:30;53777.41;;;-139.68;100.00
10940;BME280;5522;42.696;23.494;2023-05-02T00:58:00;53789.47;;;-139.68;100.00
10940;BME280;5522;42.696;23.494;2023-05-02T01:05:58;53759.31;;;-139.68;100.00
10940;BME280;5522;42.696;23.494;2023-05-02T01:08:34;53775.41;;;-139.68;100.00
10940;BME280;5522;42.696;23.494;2023-05-02T01:11:08;53719.13;;;-139.68;100.00
10940;BME280;5522;42.696;23.494;2023-05-02T01:13:39;53749.28;;;-139.68;100.00
10940;BME280;5522;42.696;23.494;2023-05-02T01:16:10;53751.28;;;-139.68;100.00
10940;BME280;5522;42.696;23.494;2023-05-02T01:18:40;53723.13;;;-139.68;100.00
10940;BME280;5522;42.696;23.494;2023-05-02T01:21:08;53779.44;;;-139.68;100.00
10940;BME280;5522;42.696;23.494;2023-05-02T01:23:44;53729.16;;;-139.68;100.00
10940;BME280;5522;42.696;23.494;2023-05-02T01:26:23;53743.25;;;-139.68;100.00
10940;BME280;5522;42.696;23.494;2023-05-02T01:29:01;53737.22;;;-139.68;100.00
10940;BME280;5522;42.696;23.494;2023-05-02T01:31:30;53719.13;;;-139.68;100.00
10940;BME280;5522;42.696;23.494;2023-05-02T01:33:59;53783.44;;;-139.68;100.00
10940;BME280;5522;42.696;23.494;2023-05-02T01:36:29;53755.31;;;-139.68;100.00
10940;BME280;5522;42.696;23.494;2023-05-02T01:38:58;53763.34;;;-139.68;100.00
10940;BME280;5522;42.696;23.494;2023-05-02T01:41:26;53737.22;;;-139.68;100.00
10940;BME280;5522;42.696;23.494;2023-05-02T01:43:56;53731.19;;;-139.68;100.00
10940;BME280;5522;42.696;23.494;2023-05-02T01:46:26;53739.22;;;-139.68;100.00
10940;BME280;5522;42.696;23.494;2023-05-02T01:48:55;53771.38;;;-139.68;100.00
10940;BME280;5522;42.696;23.494;2023-05-02T01:51:27;53773.41;;;-139.68;100.00
10940;BME280;5522;42.696;23.494;2023-05-02T01:53:58;53755.31;;;-139.68;100.00
10940;BME280;5522;42.696;23.494;2023-05-02T01:56:26;53749.28;;;-139.68;100.00
10940;BME280;5522;42.696;23.494;2023-05-02T01:58:56;53747.25;;;-139.68;100.00
10940;BME280;5522;42.696;23.494;2023-05-02T02:01:25;53791.50;;;-139.68;100.00
10940;BME280;5522;42.696;23.494;2023-05-02T02:03:55;53771.38;;;-139.68;100.00
10940;BME280;5522;42.696;23.494;2023-05-02T02:06:23;53729.16;;;-139.68;100.00
10940;BME280;5522;42.696;23.494;2023-05-02T02:08:50;53755.31;;;-139.68;100.00
10940;BME280;5522;42.696;23.494;2023-05-02T02:11:25;53787.47;;;-139.68;100.00
10940;BME280;5522;42.696;23.494;2023-05-02T02:13:59;53803.56;;;-139.68;100.00
10940;BME280;5522;42.696;23.494;2023-05-02T02:16:32;53799.53;;;-139.68;100.00
10940;BME280;5522;42.696;23.494;2023-05-02T02:19:04;53751.28;;;-139.68;100.00
10940;BME280;5522;42.696;23.494;2023-05-02T02:21:33;53733.19;;;-139.68;100.00
10940;BME280;5522;42.696;23.494;2023-05-02T02:24:04;53745.25;;;-139.68;100.00
10940;BME280;5522;42.696;23.494;2023-05-02T02:26:32;53747.25;;;-139.68;100.00
10940;BME280;5522;42.696;23.494;2023-05-02T02:28:59;53741.22;;;-139.68;100.00
10940;BME280;5522;42.696;23.494;2023-05-02T02:31:31;53733.19;;;-139.68;100.00
10940;BME280;5522;42.696;23.494;2023-05-02T02:33:58;53731.19;;;-139.68;100.00
10940;BME280;5522;42.696;23.494;2023-05-02T02:36:30;53749.28;;;-139.68;100.00
10940;BME280;5522;42.696;23.494;2023-05-02T02:39:05;53743.25;;;-139.68;100.00
10940;BME280;5522;42.696;23.494;2023-05-02T02:41:41;53783.44;;;-139.68;100.00
10940;BME280;5522;42.696;23.494;2023-05-02T02:44:21;53763.34;;;-139.68;100.00
10940;BME280;5522;42.696;23.494;2023-05-02T02:46:59;53773.41;;;-139.68;100.00
10940;BME280;5522;42.696;23.494;2023-05-02T02:49:34;53747.25;;;-139.68;100.00
10940;BME280;5522;42.696;23.494;2023-05-02T02:52:08;53763.34;;;-139.68;100.00
10940;BME280;5522;42.696;23.494;2023-05-02T02:54:42;53759.31;;;-139.68;100.00
10940;BME280;5522;42.696;23.494;2023-05-02T02:57:16;53775.41;;;-139.68;100.00
10940;BME280;5522;42.696;23.494;2023-05-02T02:59:50;53767.38;;;-139.68;100.00
10940;BME280;5522;42.696;23.494;2023-05-02T03:02:28;53725.16;;;-139.68;100.00
10940;BME280;5522;42.696;23.494;2023-05-02T03:04:56;53755.31;;;-139.68;100.00
10940;BME280;5522;42.696;23.494;2023-05-02T03:07:26;53767.38;;;-139.68;100.00
10940;BME280;5522;42.696;23.494;2023-05-02T03:09:53;53759.31;;;-139.68;100.00
10940;BME280;5522;42.696;23.494;2023-05-02T03:12:20;53783.44;;;-139.68;100.00
10940;BME280;5522;42.696;23.494;2023-05-02T03:14:47;53735.19;;;-139.68;100.00
10940;BME280;5522;42.696;23.494;2023-05-02T03:17:14;53781.44;;;-139.68;100.00
10940;BME280;5522;42.696;23.494;2023-05-02T03:19:42;53767.38;;;-139.68;100.00
10940;BME280;5522;42.696;23.494;2023-05-02T03:22:09;53759.31;;;-139.68;100.00
10940;BME280;5522;42.696;23.494;2023-05-02T03:24:36;53749.28;;;-139.68;100.00
10940;BME280;5522;42.696;23.494;2023-05-02T03:27:02;53751.28;;;-139.68;100.00
10940;BME280;5522;42.696;23.494;2023-05-02T03:29:29;53773.41;;;-139.68;100.00
10940;BME280;5522;42.696;23.494;2023-05-02T03:31:56;53775.41;;;-139.68;100.00
10940;BME280;5522;42.696;23.494;2023-05-02T03:34:23;53731.19;;;-139.68;100.00
10940;BME280;5522;42.696;23.494;2023-05-02T03:36:51;53763.34;;;-139.68;100.00
10940;BME280;5522;42.696;23.494;2023-05-02T03:39:18;53735.19;;;-139.68;100.00
10940;BME280;5522;42.696;23.494;2023-05-02T03:41:45;53743.25;;;-139.68;100.00
10940;BME280;5522;42.696;23.494;2023-05-02T03:44:12;53739.22;;;-139.68;100.00
10940;BME280;5522;42.696;23.494;2023-05-02T03:46:39;53789.47;;;-139.68;100.00
10940;BME280;5522;42.696;23.494;2023-05-02T03:49:06;53735.19;;;-139.68;100.00
10940;BME280;5522;42.696;23.494;2023-05-02T03:51:33;53729.16;;;-139.68;100.00
10940;BME280;5522;42.696;23.494;2023-05-02T03:54:01;53739.22;;;-139.68;100.00
10940;BME280;5522;42.696;23.494;2023-05-02T03:56:28;53739.22;;;-139.68;100.00
10940;BME280;5522;42.696;23.494;2023-05-02T03:58:55;53761.34;;;-139.68;100.00
10940;BME280;5522;42.696;23.494;2023-05-02T04:01:22;53791.50;;;-139.68;100.00
10940;BME280;5522;42.696;23.494;2023-05-02T04:03:49;53801.53;;;-139.68;100.00
10940;BME280;5522;42.696;23.494;2023-05-02T04:06:16;53745.25;;;-139.68;100.00
10940;BME280;5522;42.696;23.494;2023-05-02T04:08:43;53763.34;;;-139.68;100.00
10940;BME280;5522;42.696;23.494;2023-05-02T04:11:11;53777.41;;;-139.68;100.00
10940;BME280;5522;42.696;23.494;2023-05-02T04:13:38;53833.72;;;-139.68;99.32
10940;BME280;5522;42.696;23.494;2023-05-02T04:16:05;53789.47;;;-139.68;95.90
10940;BME280;5522;42.696;23.494;2023-05-02T04:18:32;53787.47;;;-139.68;90.20
10940;BME280;5522;42.696;23.494;2023-05-02T04:20:59;53787.47;;;-139.68;85.99
10940;BME280;5522;42.696;23.494;2023-05-02T04:23:26;53787.47;;;-139.68;82.11
10940;BME280;5522;42.696;23.494;2023-05-02T04:25:53;53779.44;;;-139.68;74.81
10940;BME280;5522;42.696;23.494;2023-05-02T04:28:22;53787.47;;;-139.68;71.78
10940;BME280;5522;42.696;23.494;2023-05-02T04:30:49;53771.38;;;-139.68;69.12
10940;BME280;5522;42.696;23.494;2023-05-02T04:33:16;53823.66;;;-139.68;64.91
10940;BME280;5522;42.696;23.494;2023-05-02T04:35:44;53807.56;;;-139.68;65.61
10940;BME280;5522;42.696;23.494;2023-05-02T04:38:11;53787.47;;;-139.68;63.75
10940;BME280;5522;42.696;23.494;2023-05-02T04:40:38;53815.63;;;-139.68;66.69
10940;BME280;5522;42.696;23.494;2023-05-02T04:43:05;53785.47;;;-139.68;67.24
10940;BME280;5522;42.696;23.494;2023-05-02T04:45:35;53823.66;;;-139.68;61.08
10940;BME280;5522;42.696;23.494;2023-05-02T04:48:02;53777.41;;;-139.68;54.97
10940;BME280;5522;42.696;23.494;2023-05-02T04:50:29;53783.44;;;-139.68;51.29
10940;BME280;5522;42.696;23.494;2023-05-02T04:52:56;53835.72;;;-139.68;50.09
10940;BME280;5522;42.696;23.494;2023-05-02T04:55:23;53811.59;;;-139.68;47.22
10940;BME280;5522;42.696;23.494;2023-05-02T04:57:50;53807.56;;;-139.68;47.74
10940;BME280;5522;42.696;23.494;2023-05-02T05:00:17;53853.81;;;-139.68;47.17
10940;BME280;5522;42.696;23.494;2023-05-02T05:02:45;53799.53;;;-139.68;47.54
10940;BME280;5522;42.696;23.494;2023-05-02T05:05:12;53807.56;;;-139.68;46.47
10940;BME280;5522;42.696;23.494;2023-05-02T05:07:39;53781.44;;;-139.68;46.05
10940;BME280;5522;42.696;23.494;2023-05-02T05:10:07;53845.78;;;-139.68;45.02
10940;BME280;5522;42.696;23.494;2023-05-02T05:12:35;53803.56;;;-139.68;44.94
10940;BME280;5522;42.696;23.494;2023-05-02T05:15:03;53819.63;;;-139.68;44.95
10940;BME280;5522;42.696;23.494;2023-05-02T05:17:30;53795.50;;;-139.68;44.59
10940;BME280;5522;42.696;23.494;2023-05-02T05:19:58;53799.53;;;-139.68;43.07
10940;BME280;5522;42.696;23.494;2023-05-02T05:22:25;53783.44;;;-139.68;41.45
10940;BME280;5522;42.696;23.494;2023-05-02T05:24:52;53815.63;;;-139.68;43.04
10940;BME280;5522;42.696;23.494;2023-05-02T05:27:19;53797.53;;;-139.68;42.50
10940;BME280;5522;42.696;23.494;2023-05-02T05:29:46;53835.72;;;-139.68;41.16
10940;BME280;5522;42.696;23.494;2023-05-02T05:32:13;53791.50;;;-139.68;41.96
10940;BME280;5522;42.696;23.494;2023-05-02T05:34:40;53779.44;;;-139.68;41.77
10940;BME280;5522;42.696;23.494;2023-05-02T05:37:08;53805.56;;;-139.68;42.31
10940;BME280;5522;42.696;23.494;2023-05-02T05:39:35;53817.63;;;-139.68;41.47
10940;BME280;5522;42.696;23.494;2023-05-02T05:42:02;53783.44;;;-139.68;41.19
10940;BME280;5522;42.696;23.494;2023-05-02T05:44:30;53831.69;;;-139.68;39.78
10940;BME280;5522;42.696;23.494;2023-05-02T05:46:57;53833.72;;;-139.68;38.51
10940;BME280;5522;42.696;23.494;2023-05-02T05:49:24;53823.66;;;-139.68;38.98
10940;BME280;5522;42.696;23.494;2023-05-02T05:51:50;53807.56;;;-139.68;38.55
10940;BME280;5522;42.696;23.494;2023-05-02T05:54:19;53819.63;;;-139.68;40.30
10940;BME280;5522;42.696;23.494;2023-05-02T05:56:46;53827.69;;;-139.68;38.49
10940;BME280;5522;42.696;23.494;2023-05-02T05:59:13;53827.69;;;-139.68;38.96
10940;BME280;5522;42.696;23.494;2023-05-02T06:01:40;53775.41;;;-139.68;37.87
10940;BME280;5522;42.696;23.494;2023-05-02T06:04:07;53831.69;;;-139.68;37.83
10940;BME280;5522;42.696;23.494;2023-05-02T06:06:34;53803.56;;;-139.68;36.58
10940;BME280;5522;42.696;23.494;2023-05-02T06:09:00;53829.69;;;-139.68;36.07
10940;BME280;5522;42.696;23.494;2023-05-02T06:11:29;53795.50;;;-139.68;34.62
10940;BME280;5522;42.696;23.494;2023-05-02T06:13:55;53841.75;;;-139.68;34.64
10940;BME280;5522;42.696;23.494;2023-05-02T06:16:22;53839.75;;;-139.68;34.84
10940;BME280;5522;42.696;23.494;2023-05-02T06:18:50;53823.66;;;-139.68;34.74
10940;BME280;5522;42.696;23.494;2023-05-02T06:21:17;53799.53;;;-139.68;35.16
10940;BME280;5522;42.696;23.494;2023-05-02T06:23:44;53783.44;;;-139.68;34.05
10940;BME280;5522;42.696;23.494;2023-05-02T06:26:11;53845.78;;;-139.68;33.64
10940;BME280;5522;42.696;23.494;2023-05-02T06:28:39;53831.69;;;-139.68;33.43
10940;BME280;5522;42.696;23.494;2023-05-02T06:31:06;53833.72;;;-139.68;33.43
10940;BME280;5522;42.696;23.494;2023-05-02T06:33:33;53839.75;;;-139.68;33.77
10940;BME280;5522;42.696;23.494;2023-05-02T06:36:00;53855.81;;;-139.68;33.10
10940;BME280;5522;42.696;23.494;2023-05-02T06:38:27;53825.66;;;-139.68;33.91
10940;BME280;5522;42.696;23.494;2023-05-02T06:40:54;53825.66;;;-139.68;33.73
10940;BME280;5522;42.696;23.494;2023-05-02T06:43:20;53831.69;;;-139.68;34.17
10940;BME280;5522;42.696;23.494;2023-05-02T06:45:51;53849.78;;;-139.68;34.29
10940;BME280;5522;42.696;23.494;2023-05-02T06:48:18;53827.69;;;-139.68;33.34
10940;BME280;5522;42.696;23.494;2023-05-02T06:50:45;53811.59;;;-139.68;33.45
10940;BME280;5522;42.696;23.494;2023-05-02T06:53:12;53839.75;;;-139.68;33.38
10940;BME280;5522;42.696;23.494;2023-05-02T06:55:39;53813.59;;;-139.68;33.41
10940;BME280;5522;42.696;23.494;2023-05-02T06:58:06;53819.63;;;-139.68;33.44
10940;BME280;5522;42.696;23.494;2023-05-02T07:00:33;53829.69;;;-139.68;33.85
10940;BME280;5522;42.696;23.494;2023-05-02T07:03:01;53819.63;;;-139.68;34.18
10940;BME280;5522;42.696;23.494;2023-05-02T07:05:28;53871.91;;;-139.68;33.92
10940;BME280;5522;42.696;23.494;2023-05-02T07:07:55;53833.72;;;-139.68;32.92
10940;BME280;5522;42.696;23.494;2023-05-02T07:10:22;53807.56;;;-139.68;34.30
10940;BME280;5522;42.696;23.494;2023-05-02T07:12:49;53811.59;;;-139.68;33.06
10940;BME280;5522;42.696;23.494;2023-05-02T07:15:16;53783.44;;;-139.68;34.07
10940;BME280;5522;42.696;23.494;2023-05-02T07:17:43;53827.69;;;-139.68;33.14
10940;BME280;5522;42.696;23.494;2023-05-02T07:20:13;53825.66;;;-139.68;33.48
10940;BME280;5522;42.696;23.494;2023-05-02T07:22:40;53827.69;;;-139.68;32.92
10940;BME280;5522;42.696;23.494;2023-05-02T07:25:08;53819.63;;;-139.68;32.96
10940;BME280;5522;42.696;23.494;2023-05-02T07:27:35;53819.63;;;-139.68;33.08
10940;BME280;5522;42.696;23.494;2023-05-02T07:30:02;53833.72;;;-139.68;31.80
10940;BME280;5522;42.696;23.494;2023-05-02T07:32:30;53807.56;;;-139.68;32.93
10940;BME280;5522;42.696;23.494;2023-05-02T07:34:56;53811.59;;;-139.68;31.75
10940;BME280;5522;42.696;23.494;2023-05-02T07:37:24;53823.66;;;-139.68;32.66
10940;BME280;5522;42.696;23.494;2023-05-02T07:39:51;53843.75;;;-139.68;31.98
10940;BME280;5522;42.696;23.494;2023-05-02T07:42:18;53823.66;;;-139.68;32.55
10940;BME280;5522;42.696;23.494;2023-05-02T07:44:45;53807.56;;;-139.68;30.96
10940;BME280;5522;42.696;23.494;2023-05-02T07:47:11;53787.47;;;-139.68;32.72
10940;BME280;5522;42.696;23.494;2023-05-02T07:49:38;53797.53;;;-139.68;32.46
10940;BME280;5522;42.696;23.494;2023-05-02T07:52:05;53835.72;;;-139.68;32.65
10940;BME280;5522;42.696;23.494;2023-05-02T07:54:33;53827.69;;;-139.68;32.02
10940;BME280;5522;42.696;23.494;2023-05-02T07:57:00;53839.75;;;-139.68;31.41
10940;BME280;5522;42.696;23.494;2023-05-02T07:59:29;53823.66;;;-139.68;31.36
10940;BME280;5522;42.696;23.494;2023-05-02T08:01:56;53827.69;;;-139.68;30.59
10940;BME280;5522;42.696;23.494;2023-05-02T08:04:23;53849.78;;;-139.68;31.58
10940;BME280;5522;42.696;23.494;2023-05-02T08:06:50;53797.53;;;-139.68;30.77
10940;BME280;5522;42.696;23.494;2023-05-02T08:09:17;53827.69;;;-139.68;30.84
10940;BME280;5522;42.696;23.494;2023-05-02T08:11:45;53811.59;;;-139.68;30.98
10940;BME280;5522;42.696;23.494;2023-05-02T08:14:12;53805.56;;;-139.68;30.70
10940;BME280;5522;42.696;23.494;2023-05-02T08:16:39;53811.59;;;-139.68;29.43
10940;BME280;5522;42.696;23.494;2023-05-02T08:19:05;53779.44;;;-139.68;30.20
10940;BME280;5522;42.696;23.494;2023-05-02T08:21:32;53853.81;;;-139.68;30.46
10940;BME280;5522;42.696;23.494;2023-05-02T08:24:00;53815.63;;;-139.68;29.92
10940;BME280;5522;42.696;23.494;2023-05-02T08:26:27;53835.72;;;-139.68;29.80
10940;BME280;5522;42.696;23.494;2023-05-02T08:28:55;53817.63;;;-139.68;30.44
10940;BME280;5522;42.696;23.494;2023-05-02T08:31:22;53805.56;;;-139.68;30.97
10940;BME280;5522;42.696;23.494;2023-05-02T08:33:48;53813.59;;;-139.68;29.46
10940;BME280;5522;42.696;23.494;2023-05-02T08:36:16;53805.56;;;-139.68;29.73
10940;BME280;5522;42.696;23.494;2023-05-02T08:38:46;53827.69;;;-139.68;29.87
10940;BME280;5522;42.696;23.494;2023-05-02T08:41:15;53779.44;;;-139.68;29.48
10940;BME280;5522;42.696;23.494;2023-05-02T08:43:42;53819.63;;;-139.68;29.53
10940;BME280;5522;42.696;23.494;2023-05-02T08:46:12;53779.44;;;-139.68;30.58
10940;BME280;5522;42.696;23.494;2023-05-02T08:48:41;53823.66;;;-139.68;29.19
10940;BME280;5522;42.696;23.494;2023-05-02T08:51:09;53841.75;;;-139.68;29.58
10940;BME280;5522;42.696;23.494;2023-05-02T08:53:37;53773.41;;;-139.68;29.73
10940;BME280;5522;42.696;23.494;2023-05-02T08:56:05;53839.75;;;-139.68;29.46
10940;BME280;5522;42.696;23.494;2023-05-02T08:58:35;53839.75;;;-139.68;29.52
10940;BME280;5522;42.696;23.494;2023-05-02T09:01:08;53811.59;;;-139.68;30.07
10940;BME280;5522;42.696;23.494;2023-05-02T09:03:37;53783.44;;;-139.68;29.68
10940;BME280;5522;42.696;23.494;2023-05-02T09:06:06;53825.66;;;-139.68;30.38
10940;BME280;5522;42.696;23.494;2023-05-02T09:08:34;53795.50;;;-139.68;29.45
10940;BME280;5522;42.696;23.494;2023-05-02T09:11:01;53803.56;;;-139.68;30.53
10940;BME280;5522;42.696;23.494;2023-05-02T09:13:30;53799.53;;;-139.68;29.17
10940;BME280;5522;42.696;23.494;2023-05-02T09:15:58;53817.63;;;-139.68;29.89
10940;BME280;5522;42.696;23.494;2023-05-02T09:18:30;53811.59;;;-139.68;28.67
10940;BME280;5522;42.696;23.494;2023-05-02T09:21:00;53847.78;;;-139.68;29.11
10940;BME280;5522;42.696;23.494;2023-05-02T09:23:37;53827.69;;;-139.68;29.41
10940;BME280;5522;42.696;23.494;2023-05-02T09:26:11;53821.66;;;-139.68;29.08
10940;BME280;5522;42.696;23.494;2023-05-02T09:28:40;53811.59;;;-139.68;29.13
10940;BME280;5522;42.696;23.494;2023-05-02T09:31:08;53849.78;;;-139.68;29.17
10940;BME280;5522;42.696;23.494;2023-05-02T09:33:35;53821.66;;;-139.68;28.26
10940;BME280;5522;42.696;23.494;2023-05-02T09:36:04;53831.69;;;-139.68;29.07
10940;BME280;5522;42.696;23.494;2023-05-02T09:38:32;53807.56;;;-139.68;28.63
10940;BME280;5522;42.696;23.494;2023-05-02T09:40:59;53829.69;;;-139.68;29.96
10940;BME280;5522;42.696;23.494;2023-05-02T09:43:28;53777.41;;;-139.68;28.97
10940;BME280;5522;42.696;23.494;2023-05-02T09:45:56;53793.50;;;-139.68;28.75
10940;BME280;5522;42.696;23.494;2023-05-02T09:48:23;53809.59;;;-139.68;29.26
10940;BME280;5522;42.696;23.494;2023-05-02T09:50:50;53827.69;;;-139.68;29.46
10940;BME280;5522;42.696;23.494;2023-05-02T09:53:18;53831.69;;;-139.68;29.83
10940;BME280;5522;42.696;23.494;2023-05-02T09:55:45;53827.69;;;-139.68;29.29
10940;BME280;5522;42.696;23.494;2023-05-02T09:58:22;53831.69;;;-139.68;28.96
10940;BME280;5522;42.696;23.494;2023-05-02T10:00:50;53795.50;;;-139.68;29.30
10940;BME280;5522;42.696;23.494;2023-05-02T10:03:17;53847.78;;;-139.68;29.24
10940;BME280;5522;42.696;23.494;2023-05-02T10:05:45;53813.59;;;-139.68;31.36
10940;BME280;5522;42.696;23.494;2023-05-02T10:08:13;53835.72;;;-139.68;31.60
10940;BME280;5522;42.696;23.494;2023-05-02T10:10:45;53795.50;;;-139.68;31.47
10940;BME280;5522;42.696;23.494;2023-05-02T10:13:16;53815.63;;;-139.68;31.35
10940;BME280;5522;42.696;23.494;2023-05-02T10:15:48;53801.53;;;-139.68;32.24
10940;BME280;5522;42.696;23.494;2023-05-02T10:18:20;53807.56;;;-139.68;31.18
10940;BME280;5522;42.696;23.494;2023-05-02T10:20:56;53807.56;;;-139.68;32.82
10940;BME280;5522;42.696;23.494;2023-05-02T10:23:27;53813.59;;;-139.68;31.48
10940;BME280;5522;42.696;23.494;2023-05-02T10:25:57;53801.53;;;-139.68;32.32
10940;BME280;5522;42.696;23.494;2023-05-02T10:28:25;53831.69;;;-139.68;32.55
10940;BME280;5522;42.696;23.494;2023-05-02T10:30:52;53815.63;;;-139.68;32.46
10940;BME280;5522;42.696;23.494;2023-05-02T10:33:20;53831.69;;;-139.68;31.63
10940;BME280;5522;42.696;23.494;2023-05-02T10:35:47;53813.59;;;-139.68;31.99
10940;BME280;5522;42.696;23.494;2023-05-02T10:38:16;53849.78;;;-139.68;32.39
10940;BME280;5522;42.696;23.494;2023-05-02T10:40:50;53831.69;;;-139.68;32.00
10940;BME280;5522;42.696;23.494;2023-05-02T10:43:23;53827.69;;;-139.68;32.56
10940;BME280;5522;42.696;23.494;2023-05-02T10:45:52;53843.75;;;-139.68;31.35
10940;BME280;5522;42.696;23.494;2023-05-02T10:48:20;53791.50;;;-139.68;32.42
10940;BME280;5522;42.696;23.494;2023-05-02T10:50:49;53847.78;;;-139.68;31.88
10940;BME280;5522;42.696;23.494;2023-05-02T10:53:27;53829.69;;;-139.68;31.31
10940;BME280;5522;42.696;23.494;2023-05-02T10:56:17;53831.69;;;-139.68;31.55
10940;BME280;5522;42.696;23.494;2023-05-02T10:58:47;53839.75;;;-139.68;31.88
10940;BME280;5522;42.696;23.494;2023-05-02T11:01:34;53845.78;;;-139.68;31.35
10940;BME280;5522;42.696;23.494;2023-05-02T11:04:08;53845.78;;;-139.68;31.63
10940;BME280;5522;42.696;23.494;2023-05-02T11:06:36;53823.66;;;-139.68;31.57
10940;BME280;5522;42.696;23.494;2023-05-02T11:09:30;53817.63;;;-139.68;31.00
10940;BME280;5522;42.696;23.494;2023-05-02T11:11:57;53831.69;;;-139.68;31.81
10940;BME280;5522;42.696;23.494;2023-05-02T11:14:46;53823.66;;;-139.68;31.78
10940;BME280;5522;42.696;23.494;2023-05-02T11:17:15;53831.69;;;-139.68;31.21
10940;BME280;5522;42.696;23.494;2023-05-02T11:20:18;53853.81;;;-139.68;31.19
10940;BME280;5522;42.696;23.494;2023-05-02T11:22:45;53815.63;;;-139.68;31.75
10940;BME280;5522;42.696;23.494;2023-05-02T11:25:30;53823.66;;;-139.68;32.38
10940;BME280;5522;42.696;23.494;2023-05-02T11:27:57;53829.69;;;-139.68;32.00
10940;BME280;5522;42.696;23.494;2023-05-02T11:30:40;53815.63;;;-139.68;31.97
10940;BME280;5522;42.696;23.494;2023-05-02T11:33:12;53827.69;;;-139.68;31.24
10940;BME280;5522;42.696;23.494;2023-05-02T11:35:42;53817.63;;;-139.68;32.17
10940;BME280;5522;42.696;23.494;2023-05-02T11:38:11;53799.53;;;-139.68;32.70
10940;BME280;5522;42.696;23.494;2023-05-02T11:40:38;53805.56;;;-139.68;31.67
10940;BME280;5522;42.696;23.494;2023-05-02T11:43:12;53847.78;;;-139.68;31.65
10940;BME280;5522;42.696;23.494;2023-05-02T11:45:41;53829.69;;;-139.68;32.21
10940;BME280;5522;42.696;23.494;2023-05-02T11:48:09;53837.72;;;-139.68;32.00
10940;BME280;5522;42.696;23.494;2023-05-02T11:50:40;53817.63;;;-139.68;32.74
10940;BME280;5522;42.696;23.494;2023-05-02T11:53:09;53857.84;;;-139.68;32.25
10940;BME280;5522;42.696;23.494;2023-05-02T11:55:37;53799.53;;;-139.68;30.99
10940;BME280;5522;42.696;23.494;2023-05-02T11:58:03;53831.69;;;-139.68;30.90
10940;BME280;5522;42.696;23.494;2023-05-02T12:00:30;53829.69;;;-139.68;30.87
10940;BME280;5522;42.696;23.494;2023-05-02T12:02:59;53803.56;;;-139.68;31.54
10940;BME280;5522;42.696;23.494;2023-05-02T12:05:29;53833.72;;;-139.68;31.38
10940;BME280;5522;42.696;23.494;2023-05-02T12:07:55;53817.63;;;-139.68;30.99
10940;BME280;5522;42.696;23.494;2023-05-02T12:10:22;53805.56;;;-139.68;31.23
10940;BME280;5522;42.696;23.494;2023-05-02T12:13:03;53821.66;;;-139.68;30.75
10940;BME280;5522;42.696;23.494;2023-05-02T12:15:31;53815.63;;;-139.68;30.82
10940;BME280;5522;42.696;23.494;2023-05-02T12:18:00;53787.47;;;-139.68;30.38
10940;BME280;5522;42.696;23.494;2023-05-02T12:20:26;53819.63;;;-139.68;31.57
10940;BME280;5522;42.696;23.494;2023-05-02T12:22:53;53815.63;;;-139.68;30.83
10940;BME280;5522;42.696;23.494;2023-05-02T12:25:21;53819.63;;;-139.68;30.97
10940;BME280;5522;42.696;23.494;2023-05-02T12:27:58;53781.44;;;-139.68;30.02
10940;BME280;5522;42.696;23.494;2023-05-02T12:30:25;53827.69;;;-139.68;32.09
10940;BME280;5522;42.696;23.494;2023-05-02T12:32:55;53817.63;;;-139.68;31.37
10940;BME280;5522;42.696;23.494;2023-05-02T12:35:24;53811.59;;;-139.68;30.82
10940;BME280;5522;42.696;23.494;2023-05-02T12:37:51;53867.88;;;-139.68;30.28
10940;BME280;5522;42.696;23.494;2023-05-02T12:40:19;53825.66;;;-139.68;31.67
10940;BME280;5522;42.696;23.494;2023-05-02T12:42:58;53839.75;;;-139.68;30.89
10940;BME280;5522;42.696;23.494;2023-05-02T12:45:28;53825.66;;;-139.68;30.55
10940;BME280;5522;42.696;23.494;2023-05-02T12:47:58;53803.56;;;-139.68;30.61
10940;BME280;5522;42.696;23.494;2023-05-02T12:50:37;53823.66;;;-139.68;30.62
10940;BME280;5522;42.696;23.494;2023-05-02T12:53:04;53783.44;;;-139.68;30.29